Time;durP1;ratioP1;P1;durP2;ratioP2;P2;SDS_P1;SDS_P2;PMS_P1;PMS_P2;Temp;Humidity;BMP_temperature;BMP_pressure;BME280_temperature;BME280_humidity;BME280_pressure;Samples;Min_cycle;Max_cycle;Signal;HPM_P1;HPM_P2
2022/05/21 00:02:17;;;;;;;;;;;17.30;1.00;;;;;;6306438;22;20226;-84
2022/05/21 00:04:44;;;;;;;;;;;17.30;1.00;;;;;;6307219;22;19910;-84
2022/05/21 00:07:11;;;;;;;;;;;17.30;1.00;;;;;;6306466;22;19911;-84
2022/05/21 00:09:38;;;;;;;;;;;17.30;1.00;;;;;;6306283;22;19980;-84
2022/05/21 00:12:06;;;;;;;;;;;17.30;1.00;;;;;;6306353;22;20229;-84
2022/05/21 00:14:34;;;;;;;;;;;17.40;1.00;;;;;;6306278;22;19917;-84
2022/05/21 00:17:02;;;;;;;;;;;17.40;1.00;;;;;;6306313;22;20328;-85
2022/05/21 00:19:30;;;;;;;;;;;17.30;1.00;;;;;;6275316;22;19926;-84
2022/05/21 00:21:57;;;;;;;;;;;17.30;4.10;;;;;;6275385;22;19911;-85
2022/05/21 00:24:24;;;;;;;;;;;17.30;26.80;;;;;;6275855;22;19957;-84
2022/05/21 00:26:51;;;;;;;;;;;17.30;55.90;;;;;;6275792;22;19911;-84
2022/05/21 00:29:20;;;;;;;;;;;17.30;77.80;;;;;;6275615;22;19915;-85
2022/05/21 00:31:47;;;;;;;;;;;17.30;99.90;;;;;;6276232;22;19911;-84
2022/05/21 00:34:15;;;;;;;;;;;17.30;99.90;;;;;;6277364;22;19965;-84
2022/05/21 00:36:41;;;;;;;;;;;17.30;99.90;;;;;;6277204;22;19919;-84
2022/05/21 00:39:08;;;;;;;;;;;17.20;99.90;;;;;;6277653;22;19982;-84
2022/05/21 00:41:36;;;;;;;;;;;17.20;99.90;;;;;;6277001;22;19933;-84
2022/05/21 00:44:03;;;;;;;;;;;17.20;99.90;;;;;;6278016;22;19911;-83
2022/05/21 00:46:31;;;;;;;;;;;17.20;99.90;;;;;;6277599;22;19910;-85
2022/05/21 00:48:59;;;;;;;;;;;17.20;1.00;;;;;;6277498;22;19956;-83
2022/05/21 00:51:30;;;;;;;;;;;17.20;1.00;;;;;;6277525;22;19957;-84
2022/05/21 00:53:59;;;;;;;;;;;17.30;1.00;;;;;;6277150;22;20279;-83
2022/05/21 00:56:26;;;;;;;;;;;17.20;1.00;;;;;;6277331;22;19911;-84
2022/05/21 01:01:40;;;;;;;;;;;17.20;1.00;;;;;;6277272;22;19964;-84
2022/05/21 01:04:07;;;;;;;;;;;17.10;1.00;;;;;;6276840;22;19911;-84
2022/05/21 01:06:35;;;;;;;;;;;17.10;1.00;;;;;;6277377;22;19973;-84
2022/05/21 01:09:02;;;;;;;;;;;17.10;1.00;;;;;;6277357;22;19964;-83
2022/05/21 01:11:29;;;;;;;;;;;17.10;1.00;;;;;;6277319;22;20238;-84
2022/05/21 01:13:56;;;;;;;;;;;17.10;1.00;;;;;;6277250;22;19911;-84
2022/05/21 01:16:23;;;;;;;;;;;17.10;77.90;;;;;;6277136;22;19911;-84
2022/05/21 01:18:49;;;;;;;;;;;17.10;99.90;;;;;;6277427;22;19911;-85
2022/05/21 01:21:16;;;;;;;;;;;17.10;99.90;;;;;;6277140;22;19918;-84
2022/05/21 01:23:44;;;;;;;;;;;17.10;99.90;;;;;;6277175;22;19915;-83
2022/05/21 01:26:13;;;;;;;;;;;17.10;99.90;;;;;;6276819;22;19957;-83
2022/05/21 01:28:40;;;;;;;;;;;17.10;99.90;;;;;;6277148;22;19911;-83
2022/05/21 01:31:07;;;;;;;;;;;17.20;1.00;;;;;;6276894;22;19915;-84
2022/05/21 01:33:36;;;;;;;;;;;17.20;1.00;;;;;;6276988;22;19914;-85
2022/05/21 01:36:03;;;;;;;;;;;17.20;1.00;;;;;;6276997;22;19957;-83
2022/05/21 01:38:31;;;;;;;;;;;17.20;1.00;;;;;;6276953;22;19911;-84
2022/05/21 01:41:00;;;;;;;16.13;14.10;;;17.20;1.00;;;;;;6276427;22;20344;-83
2022/05/21 01:46:12;;;;;;;16.65;13.95;;;17.20;1.00;;;;;;6276293;22;20168;-84
2022/05/21 01:48:39;;;;;;;;;;;17.30;1.00;;;;;;6276853;22;20170;-85
2022/05/21 01:51:06;;;;;;;;;;;17.30;1.00;;;;;;6276474;22;19934;-83
2022/05/21 01:53:34;;;;;;;;;;;17.30;1.00;;;;;;6276454;22;19917;-84
2022/05/21 01:56:02;;;;;;;;;;;17.30;1.00;;;;;;6276185;22;19911;-84
2022/05/21 01:58:30;;;;;;;;;;;17.20;99.90;;;;;;6276803;22;19915;-84
2022/05/21 02:00:56;;;;;;;;;;;17.20;99.90;;;;;;6276507;22;19957;-84
2022/05/21 02:03:24;;;;;;;;;;;17.10;1.00;;;;;;6276675;22;19911;-84
2022/05/21 02:05:51;;;;;;;;;;;17.00;1.00;;;;;;6276748;22;19957;-84
2022/05/21 02:08:18;;;;;;;7.17;3.97;;;16.90;99.90;;;;;;6276283;22;20047;-84
2022/05/21 02:10:47;;;;;;;4.63;3.83;;;16.80;45.50;;;;;;6275823;22;20606;-84
2022/05/21 02:13:17;;;;;;;4.87;3.67;;;16.70;1.00;;;;;;6275933;22;20678;-85
2022/05/21 02:15:44;;;;;;;;;;;16.60;1.00;;;;;;6276156;22;20194;-84
2022/05/21 02:18:11;;;;;;;;;;;16.50;1.00;;;;;;6276287;22;19946;-85
2022/05/21 02:20:38;;;;;;;;;;;16.30;1.00;;;;;;6276675;22;19981;-84
2022/05/21 02:23:04;;;;;;;;;;;16.20;1.00;;;;;;6276159;22;20192;-83
2022/05/21 02:25:31;;;;;;;;;;;16.10;1.00;;;;;;6275906;22;19911;-83
2022/05/21 02:27:58;;;;;;;;;;;16.00;1.00;;;;;;6276558;22;19911;-85
2022/05/21 02:30:26;;;;;;;;;;;15.90;1.00;;;;;;6276863;22;19911;-83
2022/05/21 02:32:53;;;;;;;;;;;15.90;1.00;;;;;;6276735;22;19915;-84
2022/05/21 02:35:20;;;;;;;;;;;15.80;1.00;;;;;;6276037;22;19960;-84
2022/05/21 02:40:31;;;;;;;;;;;15.70;1.00;;;;;;6276238;22;19957;-84
2022/05/21 02:42:58;;;;;;;;;;;15.70;1.00;;;;;;6276357;22;19915;-84
2022/05/21 02:45:27;;;;;;;;;;;15.70;1.00;;;;;;6276622;22;19915;-84
2022/05/21 02:47:54;;;;;;;;;;;15.70;1.00;;;;;;6276687;22;19911;-84
2022/05/21 02:50:26;;;;;;;;;;;15.70;1.00;;;;;;6276330;22;19965;-84
2022/05/21 02:52:52;;;;;;;;;;;15.70;1.00;;;;;;6276286;22;19941;-84
2022/05/21 02:55:20;;;;;;;;;;;15.70;1.00;;;;;;6275816;22;19911;-84
2022/05/21 02:57:47;;;;;;;;;;;15.70;99.90;;;;;;6275967;22;19965;-84
2022/05/21 03:00:16;;;;;;;;;;;15.70;99.90;;;;;;6276295;22;19957;-83
2022/05/21 03:02:44;;;;;;;;;;;15.80;99.90;;;;;;6276284;22;19911;-84
2022/05/21 03:05:11;;;;;;;;;;;15.70;99.90;;;;;;6275745;22;19956;-84
2022/05/21 03:07:39;;;;;;;;;;;15.70;99.90;;;;;;6276258;22;19911;-83
2022/05/21 03:10:23;;;;;;;;;;;15.70;99.90;;;;;;6276211;22;19935;-84
2022/05/21 03:12:51;;;;;;;;;;;15.70;34.10;;;;;;6276541;22;19976;-84
2022/05/21 03:15:24;;;;;;;;;;;15.70;1.00;;;;;;6277007;22;19918;-89
2022/05/21 03:17:53;;;;;;;;;;;15.70;1.00;;;;;;6276192;22;19911;-88
2022/05/21 03:20:20;;;;;;;;;;;15.70;1.00;;;;;;6276896;22;20333;-86
2022/05/21 03:22:47;;;;;;;;;;;15.60;1.00;;;;;;6276444;22;19919;-85
2022/05/21 03:25:14;;;;;;;;;;;15.60;1.00;;;;;;6277177;22;19911;-86
2022/05/21 03:27:41;;;;;;;;;;;15.60;99.90;;;;;;6281773;22;19922;-86
2022/05/21 03:30:09;;;;;;;;;;;15.60;99.90;;;;;;6282110;22;19958;-85
2022/05/21 03:32:36;;;;;;;;;;;15.60;99.90;;;;;;6277130;22;19911;-86
2022/05/21 03:35:05;;;;;;;;;;;15.50;99.90;;;;;;6280830;22;19964;-85
2022/05/21 03:37:31;;;;;;;;;;;15.60;99.90;;;;;;6276675;22;20376;-85
2022/05/21 03:39:58;;;;;;;;;;;15.50;99.90;;;;;;6279245;22;19956;-86
2022/05/21 03:42:29;;;;;;;;;;;15.50;1.00;;;;;;6278196;22;19986;-87
2022/05/21 03:44:56;;;;;;;;;;;15.50;1.00;;;;;;6278436;22;20222;-89
2022/05/21 03:47:23;;;;;;;;;;;15.50;1.00;;;;;;6277058;22;19950;-84
2022/05/21 03:49:49;;;;;;;;;;;15.40;1.00;;;;;;6277546;22;19911;-85
2022/05/21 03:52:17;;;;;;;;;;;15.30;1.00;;;;;;6280272;22;20367;-85
2022/05/21 03:54:44;;;;;;;;;;;15.40;1.00;;;;;;6279652;22;20412;-85
2022/05/21 03:57:15;;;;;;;;;;;15.30;1.00;;;;;;6277379;22;19911;-87
2022/05/21 03:59:42;;;;;;;;;;;15.30;1.00;;;;;;6279086;22;19922;-84
2022/05/21 04:02:10;;;;;;;;;;;15.30;1.00;;;;;;6276479;22;19911;-84
2022/05/21 04:04:37;;;;;;;;;;;15.30;1.00;;;;;;6275909;22;19911;-85
2022/05/21 04:07:04;;;;;;;;;;;15.20;1.00;;;;;;6280841;22;19915;-85
2022/05/21 04:09:32;;;;;;;;;;;15.20;1.00;;;;;;6279988;22;19921;-86
2022/05/21 04:11:59;;;;;;;2.90;1.40;;;15.20;1.00;;;;;;6278636;22;20617;-86
2022/05/21 04:14:28;;;;;;;2.97;1.40;;;15.20;1.00;;;;;;6280103;22;20467;-86
2022/05/21 04:16:55;;;;;;;7.73;1.63;;;15.20;1.00;;;;;;6278940;22;20693;-87
2022/05/21 04:19:23;;;;;;;3.73;1.40;;;15.20;1.00;;;;;;6280729;22;20160;-85
2022/05/21 04:21:50;;;;;;;2.50;1.60;;;15.20;1.00;;;;;;6278622;22;20166;-84
2022/05/21 04:24:17;;;;;;;2.77;1.60;;;15.10;1.00;;;;;;6280282;22;20613;-86
2022/05/21 04:26:46;;;;;;;2.00;1.53;;;15.10;1.00;;;;;;6280034;22;20489;-91
2022/05/21 04:29:16;;;;;;;2.63;1.60;;;15.10;1.00;;;;;;6281938;22;20165;-89
2022/05/21 04:31:43;;;;;;;1.97;1.73;;;15.10;1.00;;;;;;6277897;22;20175;-87
2022/05/21 04:34:10;;;;;;;2.23;1.57;;;15.10;1.00;;;;;;6280172;22;20172;-84
2022/05/21 04:36:37;;;;;;;3.30;1.90;;;15.20;1.00;;;;;;6281899;22;20221;-88
2022/05/21 04:39:05;;;;;;;3.33;1.97;;;15.10;1.00;;;;;;6278433;22;20226;-84
2022/05/21 04:41:32;;;;;;;3.07;1.93;;;15.20;1.00;;;;;;6279422;22;20550;-86
2022/05/21 04:44:02;;;;;;;4.00;1.70;;;15.10;1.00;;;;;;6279312;22;20158;-86
2022/05/21 04:46:31;;;;;;;3.50;1.80;;;15.10;1.00;;;;;;6282690;22;20169;-87
2022/05/21 04:49:06;;;;;;;2.23;1.90;;;15.10;1.00;;;;;;6284525;22;20165;-86
2022/05/21 04:51:36;;;;;;;4.93;1.90;;;15.00;1.00;;;;;;6296221;22;20165;-84
2022/05/21 04:54:03;;;;;;;3.90;1.80;;;15.10;1.00;;;;;;6288725;22;20584;-85
2022/05/21 04:56:39;;;;;;;2.20;1.63;;;15.00;1.00;;;;;;6288884;22;20188;-85
2022/05/21 04:59:08;;;;;;;2.87;2.37;;;15.00;1.00;;;;;;6287368;22;20161;-86
2022/05/21 05:01:36;;;;;;;4.20;2.47;;;15.00;1.00;;;;;;6288189;22;20231;-84
2022/05/21 05:04:03;;;;;;;2.70;2.50;;;15.00;1.00;;;;;;6296702;22;20166;-86
2022/05/21 05:06:31;;;;;;;4.67;2.40;;;14.90;1.00;;;;;;6281692;22;20175;-89
2022/05/21 05:09:22;;;;;;;2.43;2.23;;;14.90;1.00;;;;;;6301485;22;20184;-89
2022/05/21 05:11:50;;;;;;;3.73;2.30;;;14.90;1.00;;;;;;6283223;22;20186;-84
2022/05/21 05:14:19;;;;;;;3.87;2.50;;;14.80;1.00;;;;;;6280524;22;20166;-85
2022/05/21 05:16:46;;;;;;;4.60;2.60;;;14.80;1.00;;;;;;6279500;22;20548;-87
2022/05/21 05:19:13;;;;;;;2.90;2.60;;;14.70;1.00;;;;;;6280261;22;20607;-89
2022/05/21 05:21:45;;;;;;;2.97;2.47;;;14.70;1.00;;;;;;6288667;22;20153;-86
2022/05/21 05:24:20;;;;;;;5.87;3.80;;;14.70;1.00;;;;;;6287480;22;20184;-84
2022/05/21 05:26:47;;;;;;;7.63;6.17;;;14.60;1.00;;;;;;6289262;22;20154;-85
2022/05/21 05:29:18;;;;;;;8.27;5.37;;;14.50;1.00;;;;;;6298039;22;20164;-87
2022/05/21 05:31:45;;;;;;;18.30;11.57;;;14.30;1.00;;;;;;6289008;22;20182;-86
2022/05/21 05:34:12;;;;;;;15.90;8.97;;;14.10;10.30;;;;;;6290310;22;20163;-86
2022/05/21 05:36:40;;;;;;;40.67;21.40;;;14.00;99.90;;;;;;6285811;22;20229;-85
2022/05/21 05:39:07;;;;;;;13.93;9.00;;;13.90;99.90;;;;;;6280621;22;20614;-84
2022/05/21 05:41:38;;;;;;;23.73;13.37;;;13.90;99.90;;;;;;6277776;22;20472;-84
2022/05/21 05:44:06;;;;;;;14.40;9.53;;;13.90;99.90;;;;;;6279488;22;20156;-85
2022/05/21 05:46:41;;;;;;;23.77;13.03;;;14.00;99.90;;;;;;6281152;22;20169;-87
2022/05/21 05:49:09;;;;;;;9.57;7.10;;;14.10;99.90;;;;;;6279910;22;20150;-84
2022/05/21 05:51:36;;;;;;;9.40;6.30;;;14.10;99.90;;;;;;6280740;22;20480;-83
2022/05/21 05:54:03;;;;;;;9.90;7.47;;;14.10;99.90;;;;;;6279969;22;20160;-90
2022/05/21 05:56:30;;;;;;;12.57;8.70;;;14.10;99.90;;;;;;6278665;22;20261;-86
2022/05/21 06:01:44;;;;;;;7.73;5.67;;;13.90;99.90;;;;;;6285293;22;20148;-85
2022/05/21 06:04:15;;;;;;;13.43;8.03;;;13.70;99.90;;;;;;6301132;22;20180;-89
2022/05/21 06:06:42;;;;;;;5.90;4.73;;;13.70;1.00;;;;;;6278920;22;20164;-84
2022/05/21 06:09:09;;;;;;;8.93;6.43;;;13.80;1.00;;;;;;6279821;22;20174;-85
2022/05/21 06:11:38;;;;;;;6.07;4.57;;;14.10;99.90;;;;;;6278773;22;20164;-88
2022/05/21 06:14:05;;;;;;;4.87;2.87;;;14.60;1.00;;;;;;6276619;22;20161;-84
2022/05/21 06:16:32;;;;;;;5.37;3.83;;;14.70;99.90;;;;;;6275721;22;20534;-85
2022/05/21 06:19:00;;;;;;;6.57;4.07;;;14.70;50.40;;;;;;6277706;22;20166;-85
2022/05/21 06:21:29;;;;;;;4.87;3.40;;;14.70;1.00;;;;;;6280181;22;20876;-88
2022/05/21 06:23:56;;;;;;;7.33;4.50;;;14.70;1.00;;;;;;6280945;22;20194;-85
2022/05/21 06:26:31;;;;;;;8.97;4.17;;;14.60;1.00;;;;;;6276968;22;20169;-86
2022/05/21 06:28:58;;;;;;;8.00;5.27;;;14.60;1.00;;;;;;6279136;22;20157;-87
2022/05/21 06:31:25;;;;;;;6.63;4.53;;;14.80;1.00;;;;;;6278236;22;20638;-85
2022/05/21 06:33:52;;;;;;;2.77;2.37;;;14.90;1.00;;;;;;6278079;22;20188;-85
2022/05/21 06:36:22;;;;;;;5.50;2.57;;;15.20;1.00;;;;;;6277022;22;20170;-85
2022/05/21 06:38:49;;;;;;;2.00;1.63;;;16.00;99.90;;;;;;6280146;22;20156;-86
2022/05/21 06:41:16;;;;;;;2.45;2.20;;;17.30;1.00;;;;;;6277138;22;20155;-90
2022/05/21 06:43:43;;;;;;;2.97;1.63;;;18.50;99.90;;;;;;6281586;22;20209;-85
2022/05/21 06:46:10;;;;;;;2.30;1.70;;;19.50;1.00;;;;;;6277683;22;20167;-84
2022/05/21 06:48:43;;;;;;;4.07;1.80;;;20.40;1.00;;;;;;6280632;22;20232;-87
2022/05/21 06:51:10;;;;;;;3.35;2.03;;;21.30;1.00;;;;;;6276663;22;20152;-85
2022/05/21 06:53:40;;;;;;;3.85;2.55;;;21.70;1.00;;;;;;6277588;22;20160;-84
2022/05/21 06:56:08;;;;;;;2.47;1.40;;;21.80;1.00;;;;;;6278085;22;20628;-83
2022/05/21 06:58:35;;;;;;;5.05;2.65;;;22.00;1.00;;;;;;6282005;22;20278;-83
2022/05/21 07:01:02;;;;;;;6.25;3.88;;;22.20;1.00;;;;;;6279733;22;20164;-86
2022/05/21 07:03:42;;;;;;;2.22;1.15;;;22.20;1.00;;;;;;6287928;22;20174;-86
2022/05/21 07:08:54;;;;;;;3.85;2.28;;;21.50;1.00;;;;;;6279775;22;20238;-85
2022/05/21 07:11:24;;;;;;;4.22;2.00;;;20.90;1.00;;;;;;6278616;22;20239;-91
2022/05/21 07:13:51;;;;;;;8.52;3.25;;;21.20;1.00;;;;;;6278766;22;20163;-86
2022/05/21 07:16:18;;;;;;;6.20;2.35;;;21.80;1.00;;;;;;6279120;22;20660;-84
2022/05/21 07:18:46;;;;;;;8.60;4.18;;;22.30;1.00;;;;;;6278778;22;20164;-85
2022/05/21 07:21:15;;;;;;;5.18;2.55;;;22.90;1.00;;;;;;6278352;22;20163;-86
2022/05/21 07:23:42;;;;;;;6.82;3.20;;;23.10;1.00;;;;;;6275453;22;20606;-83
2022/05/21 07:26:11;;;;;;;6.25;3.50;;;23.10;1.00;;;;;;6278675;22;20159;-84
2022/05/21 07:28:38;;;;;;;9.40;3.75;;;22.40;1.00;;;;;;6278927;22;20194;-85
2022/05/21 07:31:08;;;;;;;7.22;3.65;;;22.20;1.00;;;;;;6277559;22;20164;-85
2022/05/21 07:33:35;;;;;;;7.03;2.40;;;22.20;1.00;;;;;;6275087;22;20164;-84
2022/05/21 07:36:03;;;;;;;5.18;2.22;;;21.60;1.00;;;;;;6276485;22;20665;-85
2022/05/21 07:38:30;;;;;;;5.68;1.85;;;20.90;1.00;;;;;;6280210;22;20261;-85
2022/05/21 07:41:00;;;;;;;4.90;1.90;;;20.30;1.00;;;;;;6278558;22;20167;-88
2022/05/21 07:43:30;;;;;;;3.95;2.00;;;19.70;1.00;;;;;;6279205;22;20637;-88
2022/05/21 07:45:58;;;;;;;5.55;1.95;;;19.40;1.00;;;;;;6278296;22;20239;-83
2022/05/21 07:48:27;;;;;;;4.05;1.55;;;19.30;1.00;;;;;;6275633;22;20621;-85
2022/05/21 07:50:58;;;;;;;3.55;1.63;;;19.70;1.00;;;;;;6280844;22;20164;-86
2022/05/21 07:53:28;;;;;;;2.67;1.50;;;20.30;1.00;;;;;;6280738;22;20152;-84
2022/05/21 07:55:56;;;;;;;2.70;1.30;;;20.70;1.00;;;;;;6278019;22;20152;-86
2022/05/21 07:58:25;;;;;;;3.28;1.48;;;21.00;1.00;;;;;;6278133;22;20538;-85
2022/05/21 08:00:59;;;;;;;2.85;1.60;;;20.70;1.00;;;;;;6277224;22;20163;-84
2022/05/21 08:03:27;;;;;;;3.88;1.52;;;20.20;1.00;;;;;;6280822;22;20155;-85
2022/05/21 08:05:55;;;;;;;4.38;1.30;;;20.20;1.00;;;;;;6276968;22;20194;-85
2022/05/21 08:08:22;;;;;;;4.15;1.52;;;20.80;1.00;;;;;;6279756;22;20168;-84
2022/05/21 08:10:50;;;;;;;4.10;1.40;;;21.00;1.00;;;;;;6283103;22;20203;-87
2022/05/21 08:13:20;;;;;;;4.85;1.58;;;21.40;1.00;;;;;;6284158;22;20176;-86
2022/05/21 08:15:50;;;;;;;1.75;1.10;;;21.80;1.00;;;;;;6287052;22;20238;-88
2022/05/21 08:18:18;;;;;;;3.03;1.10;;;22.10;1.00;;;;;;6284326;22;20218;-86
2022/05/21 08:21:01;;;;;;;3.08;1.20;;;22.50;1.00;;;;;;6287964;22;20171;-87
2022/05/21 08:29:20;;;;;;;3.70;1.10;;;23.80;1.00;;;;;;6164271;23;20160;-87
2022/05/21 08:31:56;;;;;;;3.42;1.10;;;24.60;1.00;;;;;;6163553;23;20253;-85
2022/05/21 08:34:34;;;;;;;2.40;1.05;;;25.00;1.00;;;;;;6228715;22;20171;-86
2022/05/21 08:37:10;;;;;;;2.80;1.08;;;24.50;1.00;;;;;;6285400;22;20179;-85
2022/05/21 08:39:39;;;;;;;4.53;1.50;;;23.60;1.00;;;;;;6285184;22;20152;-86
2022/05/21 08:42:20;;;;;;;3.22;1.40;;;22.90;1.00;;;;;;6285742;22;20210;-85
2022/05/21 08:44:58;;;;;;;4.50;1.50;;;22.30;1.00;;;;;;6287575;22;20148;-86
2022/05/21 08:47:39;;;;;;;3.60;1.48;;;21.80;1.00;;;;;;6285246;22;20156;-85
2022/05/21 08:50:11;;;;;;;3.10;1.40;;;21.00;1.00;;;;;;6287017;22;20179;-86
2022/05/21 08:52:53;;;;;;;4.47;1.40;;;20.40;1.00;;;;;;6288112;22;20183;-86
2022/05/21 08:55:30;;;;;;;2.78;1.50;;;19.90;1.00;;;;;;6287767;22;20139;-87
2022/05/21 08:58:03;;;;;;;2.28;1.50;;;19.50;1.00;;;;;;6288190;22;20705;-89
2022/05/21 09:00:40;;;;;;;2.78;1.42;;;19.30;1.00;;;;;;6286819;22;20221;-85
2022/05/21 09:03:17;;;;;;;2.35;1.20;;;19.30;1.00;;;;;;6288255;22;20148;-85
2022/05/21 09:05:53;;;;;;;3.70;1.52;;;19.30;1.00;;;;;;6288548;22;20203;-85
2022/05/21 09:08:28;;;;;;;8.13;1.50;;;19.20;1.00;;;;;;6289208;22;20158;-85
2022/05/21 09:11:04;;;;;;;2.55;1.20;;;18.80;1.00;;;;;;6288925;22;20174;-84
2022/05/21 09:13:41;;;;;;;2.83;1.30;;;18.40;1.00;;;;;;6287737;22;20136;-85
2022/05/21 09:18:58;;;;;;;2.22;1.27;;;18.50;1.00;;;;;;6290255;22;20171;-88
2022/05/21 09:21:29;;;;;;;2.92;1.33;;;18.70;1.00;;;;;;6289259;22;20526;-85
2022/05/21 09:23:58;;;;;;;5.28;1.30;;;18.80;1.00;;;;;;6287496;22;20152;-86
2022/05/21 09:26:39;;;;;;;2.50;1.58;;;18.90;1.00;;;;;;6287699;22;20184;-86
2022/05/21 09:29:16;;;;;;;3.03;1.48;;;19.00;1.00;;;;;;6289914;22;20156;-86
2022/05/21 09:31:44;;;;;;;3.08;1.40;;;19.00;1.00;;;;;;6288237;22;20209;-84
2022/05/21 09:34:14;;;;;;;4.22;1.50;;;19.00;1.00;;;;;;6291866;22;20186;-86
2022/05/21 09:36:43;;;;;;;3.72;1.40;;;18.80;1.00;;;;;;6289354;22;20468;-86
2022/05/21 09:39:10;;;;;;;1.63;1.35;;;18.70;1.00;;;;;;6291933;22;20175;-87
2022/05/21 09:41:39;;;;;;;3.03;1.60;;;18.50;1.00;;;;;;6288696;22;20221;-88
2022/05/21 09:47:17;;;;;;;5.28;1.80;;;18.10;1.00;;;;;;6287922;22;20155;-86
2022/05/21 09:50:05;;;;;;;5.85;1.60;;;18.20;1.00;;;;;;6285802;22;20152;-86
2022/05/21 09:52:34;;;;;;;2.90;1.60;;;18.30;1.00;;;;;;6286282;22;20235;-84
2022/05/21 09:55:06;;;;;;;2.80;1.50;;;18.30;1.00;;;;;;6287286;22;20188;-85
2022/05/21 09:57:43;;;;;;;3.75;1.35;;;18.20;1.00;;;;;;6287441;22;20198;-86
2022/05/21 10:00:30;;;;;;;3.03;1.80;;;18.30;1.00;;;;;;6289261;22;20619;-86
2022/05/21 10:02:59;;;;;;;6.50;3.45;;;18.40;1.00;;;;;;6288753;22;20629;-84
2022/05/21 10:05:31;;;;;;;3.67;1.73;;;18.20;1.00;;;;;;6288711;22;20151;-87
2022/05/21 10:11:11;;;;;;;2.83;1.40;;;17.90;1.00;;;;;;6287994;22;20189;-85
2022/05/21 10:14:00;;;;;;;3.45;1.60;;;17.60;1.00;;;;;;6287895;22;20165;-86
2022/05/21 10:16:37;;;;;;;2.90;1.40;;;17.50;1.00;;;;;;6285796;22;20190;-84
2022/05/21 10:19:20;;;;;;;5.47;1.77;;;17.40;1.00;;;;;;6288906;22;20244;-85
2022/05/21 10:21:55;;;;;;;3.27;1.67;;;17.30;1.00;;;;;;6288978;22;20581;-84
2022/05/21 10:24:34;;;;;;;3.67;1.50;;;17.10;1.00;;;;;;6287633;22;20152;-84
2022/05/21 10:27:08;;;;;;;3.42;1.40;;;17.10;1.00;;;;;;6287280;22;20233;-86
2022/05/21 10:30:03;;;;;;;2.97;1.50;;;17.10;1.00;;;;;;6286130;22;20604;-84
2022/05/21 10:33:03;;;;;;;3.90;1.50;;;17.20;1.00;;;;;;6283499;22;20173;-85
2022/05/21 10:35:55;;;;;;;3.80;1.40;;;17.30;1.00;;;;;;6275476;22;20167;-85
2022/05/21 10:38:40;;;;;;;6.00;1.30;;;17.50;1.00;;;;;;6288101;22;20186;-85
2022/05/21 10:41:20;;;;;;;3.58;1.58;;;17.70;1.00;;;;;;6288094;22;20154;-85
2022/05/21 10:44:02;;;;;;;2.75;1.40;;;18.00;1.00;;;;;;6287214;22;20152;-86
2022/05/21 10:46:42;;;;;;;1.70;1.40;;;18.30;1.00;;;;;;6288902;22;20514;-84
2022/05/21 10:49:43;;;;;;;3.05;1.52;;;18.50;1.00;;;;;;6287580;22;20234;-87
2022/05/21 10:52:36;;;;;;;3.65;1.48;;;18.50;1.00;;;;;;6229016;22;20163;-85
2022/05/21 10:55:14;;;;;;;3.83;1.30;;;18.60;1.00;;;;;;6287030;22;20154;-87
2022/05/21 10:58:13;;;;;;;3.92;1.63;;;18.80;1.00;;;;;;6286369;22;20171;-86
2022/05/21 11:00:52;;;;;;;1.80;1.23;;;18.90;1.00;;;;;;6285505;22;20160;-86
2022/05/21 11:03:50;;;;;;;3.58;1.50;;;18.70;1.00;;;;;;6284708;22;20442;-83
2022/05/21 11:06:54;;;;;;;3.65;1.67;;;18.50;1.00;;;;;;6285829;22;20132;-86
2022/05/21 11:09:40;;;;;;;4.60;1.85;;;18.30;1.00;;;;;;6284696;22;20166;-86
2022/05/21 11:12:14;;;;;;;2.10;1.60;;;18.10;1.00;;;;;;6287225;22;20174;-86
2022/05/21 11:15:10;;;;;;;3.33;1.70;;;17.90;1.00;;;;;;6285869;22;20612;-86
2022/05/21 11:17:43;;;;;;;4.63;1.98;;;17.80;1.00;;;;;;6287227;22;20476;-86
2022/05/21 11:20:16;;;;;;;4.10;1.80;;;17.70;1.00;;;;;;6288771;22;20151;-84
2022/05/21 11:22:50;;;;;;;5.88;2.08;;;17.70;1.00;;;;;;6288621;22;20213;-89
2022/05/21 11:25:39;;;;;;;3.65;2.13;;;17.80;1.00;;;;;;6287179;22;20163;-85
2022/05/21 11:28:29;;;;;;;2.83;2.13;;;17.90;1.00;;;;;;6285524;22;20210;-85
2022/05/21 11:31:09;;;;;;;3.67;2.35;;;17.80;1.00;;;;;;6285901;22;20147;-85
2022/05/21 11:39:43;;;;;;;4.70;2.40;;;17.60;19.60;;;;;;6287423;22;20201;-88
2022/05/21 11:42:20;;;;;;;4.05;2.15;;;17.80;44.30;;;;;;6287444;22;20158;-88
2022/05/21 11:44:58;;;;;;;3.03;2.20;;;18.00;23.90;;;;;;6287859;22;20230;-85
2022/05/21 11:48:22;;;;;;;4.00;2.00;;;18.10;28.50;;;;;;6287494;22;20190;-86
2022/05/21 11:51:34;;;;;;;4.68;1.75;;;18.50;2.50;;;;;;6287064;22;20186;-88
2022/05/21 11:54:09;;;;;;;2.42;1.58;;;19.10;1.00;;;;;;6287791;22;20147;-85
2022/05/21 11:57:06;;;;;;;2.47;1.65;;;19.60;1.00;;;;;;6286966;22;20151;-88
2022/05/21 11:59:51;;;;;;;2.97;1.92;;;20.00;1.00;;;;;;6274744;22;20244;-84
2022/05/21 12:02:28;;;;;;;4.78;1.52;;;20.40;1.00;;;;;;6285198;22;20152;-85
2022/05/21 12:04:59;;;;;;;1.83;1.42;;;20.50;1.00;;;;;;6287003;22;20179;-86
2022/05/21 12:08:02;;;;;;;4.82;1.60;;;20.30;1.00;;;;;;6285994;22;20201;-86
2022/05/21 12:11:02;;;;;;;3.38;1.58;;;20.10;1.00;;;;;;6286235;22;20163;-85
2022/05/21 12:13:59;;;;;;;2.95;1.55;;;19.90;1.00;;;;;;6286263;22;20513;-86
2022/05/21 12:17:01;;;;;;;3.13;1.80;;;19.50;1.00;;;;;;6287231;22;20188;-86
2022/05/21 12:20:11;;;;;;;3.58;1.90;;;18.90;1.00;;;;;;6164644;23;20201;-86
2022/05/21 12:22:53;;;;;;;5.00;1.80;;;18.50;1.00;;;;;;6137831;23;20644;-86
2022/05/21 12:26:04;;;;;;;4.68;1.95;;;18.20;1.00;;;;;;6267020;22;20159;-87
2022/05/21 12:28:51;;;;;;;5.95;1.90;;;18.30;1.00;;;;;;6287409;22;20463;-85
2022/05/21 12:31:25;;;;;;;3.63;2.00;;;18.30;1.00;;;;;;6290257;22;20182;-86
2022/05/21 12:34:27;;;;;;;4.28;1.90;;;18.30;1.00;;;;;;6290879;22;20139;-90
2022/05/21 12:37:23;;;;;;;4.60;2.05;;;18.40;1.00;;;;;;6281102;22;20163;-88
2022/05/21 12:40:16;;;;;;;4.95;2.08;;;18.70;1.00;;;;;;6289711;22;20171;-85
2022/05/21 12:43:02;;;;;;;4.53;2.28;;;19.00;1.00;;;;;;6287145;22;20156;-88
2022/05/21 12:45:50;;;;;;;3.60;2.20;;;19.20;1.00;;;;;;6289132;22;20152;-85
2022/05/21 12:48:31;;;;;;;3.72;2.30;;;19.40;1.00;;;;;;6288459;22;20149;-86
2022/05/21 12:50:59;;;;;;;4.13;2.53;;;19.50;1.00;;;;;;6290782;22;20140;-85
2022/05/21 12:53:39;;;;;;;3.90;2.75;;;19.50;1.00;;;;;;6289717;22;20165;-86
2022/05/21 12:56:20;;;;;;;5.30;2.67;;;19.50;1.00;;;;;;6290731;22;20158;-86
2022/05/21 12:58:47;;;;;;;6.15;2.58;;;19.30;1.00;;;;;;6288526;22;20175;-87
2022/05/21 13:01:31;;;;;;;4.10;3.10;;;19.20;1.00;;;;;;6287401;22;20152;-87
2022/05/21 13:03:59;;;;;;;5.47;2.28;;;19.40;1.00;;;;;;6286472;22;20140;-83
2022/05/21 13:06:35;;;;;;;4.45;2.13;;;20.00;1.00;;;;;;6286423;22;20159;-86
2022/05/21 13:09:18;;;;;;;4.15;2.20;;;20.60;1.00;;;;;;6287719;22;20225;-84
2022/05/21 13:11:52;;;;;;;4.55;2.67;;;21.00;1.00;;;;;;6289657;22;20202;-88
2022/05/21 13:14:29;;;;;;;4.78;2.13;;;21.10;1.00;;;;;;6288603;22;20158;-89
2022/05/21 13:17:00;;;;;;;3.60;2.17;;;21.20;1.00;;;;;;6289138;22;20213;-88
2022/05/21 13:20:20;;;;;;;;;;;;;;;;;;;;;
2022/05/21 13:23:36;;;;;;;7.80;4.75;;;21.30;1.00;;;;;;6287258;22;20191;-84
2022/05/21 13:26:06;;;;;;;3.50;2.58;;;21.20;1.00;;;;;;6289384;22;20160;-87
2022/05/21 13:28:39;;;;;;;7.68;2.92;;;21.10;1.00;;;;;;6289445;22;20163;-85
2022/05/21 13:31:16;;;;;;;9.35;5.13;;;21.10;1.00;;;;;;6288850;22;20152;-85
2022/05/21 13:33:53;;;;;;;5.80;3.47;;;21.10;1.00;;;;;;6288157;22;20182;-84
2022/05/21 13:36:29;;;;;;;6.47;2.90;;;21.00;1.00;;;;;;6288811;22;20152;-84
2022/05/21 13:38:57;;;;;;;7.97;3.58;;;20.90;1.00;;;;;;6288352;22;20183;-84
2022/05/21 13:41:42;;;;;;;4.95;3.10;;;20.80;1.00;;;;;;6289180;22;20164;-85
2022/05/21 13:44:24;;;;;;;4.22;3.05;;;20.50;1.00;;;;;;6289114;22;20462;-86
2022/05/21 13:46:57;;;;;;;5.18;3.97;;;20.10;1.00;;;;;;6287863;22;20140;-88
2022/05/21 13:49:30;;;;;;;6.22;3.72;;;19.70;1.00;;;;;;6288286;22;20144;-84
2022/05/21 13:52:08;;;;;;;5.65;2.95;;;19.30;1.00;;;;;;6287727;22;20153;-88
2022/05/21 13:54:35;;;;;;;4.85;3.42;;;18.80;1.00;;;;;;6289581;22;20151;-85
2022/05/21 13:59:58;;;;;;;6.10;3.30;;;17.80;1.00;;;;;;6283349;22;20710;-88
2022/05/21 14:02:35;;;;;;;5.75;4.97;;;17.40;1.00;;;;;;6287873;22;20171;-87
2022/05/21 14:05:33;;;;;;;10.07;5.05;;;17.20;19.00;;;;;;6288173;22;20151;-84
2022/05/21 14:08:11;;;;;;;5.10;3.67;;;17.00;77.50;;;;;;6288437;22;20181;-86
2022/05/21 14:13:34;;;;;;;3.45;3.00;;;16.80;99.90;;;;;;6284683;22;20171;-86
2022/05/21 14:16:09;;;;;;;6.95;3.75;;;16.70;99.90;;;;;;6287913;22;20558;-83
2022/05/21 14:18:42;;;;;;;6.50;4.55;;;16.70;99.90;;;;;;6286541;22;20195;-87
2022/05/21 14:21:39;;;;;;;5.80;4.45;;;16.60;99.90;;;;;;6287511;22;20168;-87
2022/05/21 14:24:17;;;;;;;4.55;3.40;;;16.50;99.90;;;;;;6286930;22;20249;-86
2022/05/21 14:27:05;;;;;;;4.47;3.88;;;16.50;99.90;;;;;;6288019;22;20607;-85
2022/05/21 14:29:50;;;;;;;6.18;5.57;;;16.40;99.90;;;;;;6288037;22;20152;-88
2022/05/21 14:32:29;;;;;;;6.13;4.90;;;16.30;99.90;;;;;;6289848;22;20178;-86
2022/05/21 14:38:05;;;;;;;10.57;5.30;;;16.30;1.00;;;;;;6284183;22;20164;-85